createdAt,value
2022-12-05T00:00:26.177Z,0
2022-12-05T00:01:29.060Z,0
2022-12-05T00:02:32.228Z,0
2022-12-05T00:03:35.827Z,0
2022-12-05T00:04:38.585Z,0
2022-12-05T00:05:41.504Z,0
2022-12-05T00:06:45.667Z,0
2022-12-05T00:07:48.252Z,0
2022-12-05T00:08:51.693Z,0
2022-12-05T00:09:53.950Z,0
2022-12-05T00:10:58.202Z,0
2022-12-05T00:12:00.970Z,0
2022-12-05T00:13:04.096Z,0
2022-12-05T00:14:06.935Z,0
2022-12-05T00:15:10.035Z,0
2022-12-05T00:16:13.114Z,0
2022-12-05T00:17:16.311Z,0
2022-12-05T00:18:19.231Z,0
2022-12-05T00:19:22.482Z,0
2022-12-05T00:20:25.070Z,0
2022-12-05T00:21:27.882Z,0
2022-12-05T00:22:32.000Z,0
2022-12-05T00:23:35.163Z,0
2022-12-05T00:24:38.493Z,0
2022-12-05T00:25:40.923Z,0
2022-12-05T00:26:44.248Z,0
2022-12-05T00:27:46.941Z,0
2022-12-05T00:28:50.165Z,0
2022-12-05T00:29:53.295Z,0
2022-12-05T00:30:56.261Z,0
2022-12-05T00:31:59.302Z,0
2022-12-05T00:33:02.264Z,0
2022-12-05T00:34:04.778Z,0
2022-12-05T00:35:07.593Z,0
2022-12-05T00:36:10.087Z,0
2022-12-05T00:37:12.281Z,0
2022-12-05T00:38:16.483Z,0
2022-12-05T00:39:19.467Z,0
2022-12-05T00:40:22.897Z,0
2022-12-05T00:41:25.951Z,0
2022-12-05T00:42:29.022Z,0
2022-12-05T00:43:31.519Z,0
2022-12-05T00:44:34.596Z,0
2022-12-05T00:45:37.731Z,0
2022-12-05T00:46:41.615Z,0
2022-12-05T00:47:44.408Z,0
2022-12-05T00:48:47.284Z,0
2022-12-05T00:49:50.150Z,0
2022-12-05T00:50:53.029Z,0
2022-12-05T00:51:55.456Z,0
2022-12-05T00:52:57.637Z,0
2022-12-05T00:54:01.827Z,0
2022-12-05T00:55:04.440Z,0
2022-12-05T00:56:07.507Z,0
2022-12-05T00:57:10.577Z,0
2022-12-05T00:58:12.472Z,0
2022-12-05T00:59:15.727Z,0
2022-12-05T01:00:18.897Z,0
2022-12-05T01:01:22.086Z,0
2022-12-05T01:02:26.674Z,0
2022-12-05T01:03:30.093Z,0
2022-12-05T01:04:33.098Z,0
2022-12-05T01:05:36.434Z,0
2022-12-05T01:06:39.292Z,0
2022-12-05T01:07:42.313Z,0
2022-12-05T01:08:45.741Z,0
2022-12-05T01:09:49.857Z,0
2022-12-05T01:10:52.625Z,0
2022-12-05T01:11:55.397Z,0
2022-12-05T01:12:58.643Z,0
2022-12-05T01:14:01.871Z,0
2022-12-05T01:15:04.642Z,0
2022-12-05T01:16:06.827Z,0
2022-12-05T01:17:10.248Z,0
2022-12-05T01:18:13.253Z,0
2022-12-05T01:19:15.836Z,0
2022-12-05T01:20:19.193Z,0
2022-12-05T01:21:21.828Z,0
2022-12-05T01:22:24.054Z,0
2022-12-05T01:23:26.902Z,0
2022-12-05T01:24:29.991Z,0
2022-12-05T01:25:34.168Z,0
2022-12-05T01:26:37.212Z,0
2022-12-05T01:27:40.269Z,0
2022-12-05T01:28:42.896Z,0
2022-12-05T01:29:46.845Z,0
2022-12-05T01:30:49.631Z,0
2022-12-05T01:31:52.206Z,0
2022-12-05T01:32:55.416Z,0
2022-12-05T01:33:58.482Z,0
2022-12-05T01:35:01.858Z,0
2022-12-05T01:36:03.809Z,0
2022-12-05T01:37:06.497Z,0
2022-12-05T01:38:08.914Z,0
2022-12-05T01:39:11.132Z,0
2022-12-05T01:40:14.282Z,0
2022-12-05T01:41:18.401Z,0
2022-12-05T01:42:25.971Z,0
2022-12-05T01:43:29.698Z,0
2022-12-05T01:44:32.750Z,0
2022-12-05T01:45:35.776Z,0
2022-12-05T01:46:39.511Z,0
2022-12-05T01:47:42.207Z,0
2022-12-05T01:48:44.500Z,0
2022-12-05T01:49:47.000Z,0
2022-12-05T01:50:49.776Z,0
2022-12-05T01:51:52.627Z,0
2022-12-05T01:52:55.127Z,0
2022-12-05T01:53:57.430Z,0
2022-12-05T01:55:00.421Z,0
2022-12-05T01:56:03.010Z,0
2022-12-05T01:57:07.187Z,0
2022-12-05T01:58:10.236Z,0
2022-12-05T01:59:13.284Z,0
2022-12-05T02:00:15.983Z,0
2022-12-05T02:01:18.822Z,0
2022-12-05T02:02:22.168Z,0
2022-12-05T02:03:25.528Z,0
2022-12-05T02:04:29.004Z,0
2022-12-05T02:05:31.866Z,0
2022-12-05T02:06:34.575Z,0
2022-12-05T02:07:37.592Z,0
2022-12-05T02:08:40.571Z,0
2022-12-05T02:09:42.799Z,0
2022-12-05T02:10:45.500Z,0
2022-12-05T02:11:48.502Z,0
2022-12-05T02:12:52.634Z,0
2022-12-05T02:13:55.716Z,0
2022-12-05T02:14:58.504Z,0
2022-12-05T02:16:01.361Z,0
2022-12-05T02:17:05.147Z,0
2022-12-05T02:18:08.581Z,0
2022-12-05T02:19:11.711Z,0
2022-12-05T02:20:14.415Z,0
2022-12-05T02:21:18.024Z,0
2022-12-05T02:22:20.510Z,0
2022-12-05T02:23:23.100Z,0
2022-12-05T02:24:26.173Z,0
2022-12-05T02:25:29.143Z,0
2022-12-05T02:26:32.115Z,0
2022-12-05T02:27:35.194Z,0
2022-12-05T02:28:39.426Z,0
2022-12-05T02:29:42.273Z,0
2022-12-05T02:30:45.052Z,0
2022-12-05T02:31:47.866Z,0
2022-12-05T02:32:51.654Z,0
2022-12-05T02:33:54.422Z,0
2022-12-05T02:34:56.921Z,0
2022-12-05T02:36:00.352Z,0
2022-12-05T02:37:03.467Z,0
2022-12-05T02:38:06.801Z,0
2022-12-05T02:39:09.285Z,0
2022-12-05T02:40:11.566Z,0
2022-12-05T02:41:14.607Z,0
2022-12-05T02:42:17.444Z,0
2022-12-05T02:43:20.532Z,0
2022-12-05T02:44:24.663Z,0
2022-12-05T02:45:28.064Z,0
2022-12-05T02:46:31.694Z,0
2022-12-05T02:47:34.634Z,0
2022-12-05T02:48:37.899Z,0
2022-12-05T02:49:41.302Z,0
2022-12-05T02:50:43.794Z,0
2022-12-05T02:51:46.589Z,0
2022-12-05T02:52:49.582Z,0
2022-12-05T02:53:52.837Z,0
2022-12-05T02:54:56.160Z,0
2022-12-05T02:55:59.413Z,0
2022-12-05T02:57:02.099Z,0
2022-12-05T02:58:05.360Z,0
2022-12-05T02:59:08.367Z,0
2022-12-05T03:00:12.533Z,0
2022-12-05T03:01:15.696Z,0
2022-12-05T03:02:19.186Z,0
2022-12-05T03:03:22.405Z,0
2022-12-05T03:04:25.571Z,0
2022-12-05T03:05:28.587Z,0
2022-12-05T03:06:31.719Z,0
2022-12-05T03:07:34.460Z,0
2022-12-05T03:08:37.743Z,0
2022-12-05T03:09:40.997Z,0
2022-12-05T03:10:43.411Z,0
2022-12-05T03:11:46.113Z,0
2022-12-05T03:12:49.825Z,0
2022-12-05T03:13:52.756Z,0
2022-12-05T03:14:56.112Z,0
2022-12-05T03:16:00.316Z,0
2022-12-05T03:17:03.386Z,0
2022-12-05T03:18:07.047Z,0
2022-12-05T03:19:10.105Z,0
2022-12-05T03:20:12.882Z,0
2022-12-05T03:21:16.011Z,0
2022-12-05T03:22:18.788Z,0
2022-12-05T03:23:21.647Z,0
2022-12-05T03:24:24.703Z,0
2022-12-05T03:25:27.963Z,0
2022-12-05T03:26:30.672Z,0
2022-12-05T03:27:33.592Z,0
2022-12-05T03:28:36.440Z,0
2022-12-05T03:29:38.655Z,0
2022-12-05T03:30:41.784Z,0
2022-12-05T03:31:46.392Z,0
2022-12-05T03:32:48.813Z,0
2022-12-05T03:33:52.410Z,0
2022-12-05T03:34:54.931Z,0
2022-12-05T03:35:57.965Z,0
2022-12-05T03:37:01.016Z,0
2022-12-05T03:38:03.395Z,0
2022-12-05T03:39:06.093Z,0
2022-12-05T03:40:09.235Z,0
2022-12-05T03:41:12.383Z,0
2022-12-05T03:42:14.865Z,0
2022-12-05T03:43:18.004Z,0
2022-12-05T03:44:20.988Z,0
2022-12-05T03:45:24.016Z,0
2022-12-05T03:46:26.902Z,0
2022-12-05T03:47:31.541Z,0
2022-12-05T03:48:35.026Z,0
2022-12-05T03:49:37.996Z,0
2022-12-05T03:50:40.849Z,0
2022-12-05T03:51:44.483Z,0
2022-12-05T03:53:17.807Z,0
2022-12-05T03:54:23.395Z,0
2022-12-05T03:55:25.899Z,0
2022-12-05T03:56:28.425Z,0
2022-12-05T03:57:31.592Z,0
2022-12-05T03:58:34.663Z,0
2022-12-05T03:59:37.366Z,0
2022-12-05T04:00:40.360Z,0
2022-12-05T04:01:43.412Z,0
2022-12-05T04:02:48.222Z,0
2022-12-05T04:03:51.146Z,0
2022-12-05T04:04:54.442Z,0
2022-12-05T04:05:57.861Z,0
2022-12-05T04:07:00.836Z,0
2022-12-05T04:08:04.509Z,0
2022-12-05T04:09:11.173Z,0
2022-12-05T04:10:20.068Z,0
2022-12-05T04:11:24.048Z,0
2022-12-05T04:12:27.379Z,0
2022-12-05T04:13:30.739Z,0
2022-12-05T04:14:33.801Z,0
2022-12-05T04:15:36.508Z,0
2022-12-05T04:16:39.241Z,0
2022-12-05T04:17:42.247Z,0
2022-12-05T04:18:55.226Z,0
2022-12-05T04:19:59.172Z,0
2022-12-05T04:21:03.146Z,0
2022-12-05T04:22:06.398Z,0
2022-12-05T04:23:08.694Z,0
2022-12-05T04:24:11.749Z,0
2022-12-05T04:25:15.009Z,0
2022-12-05T04:26:18.341Z,0
2022-12-05T04:27:21.673Z,0
2022-12-05T04:28:23.883Z,0
2022-12-05T04:29:27.144Z,0
2022-12-05T04:30:29.839Z,0
2022-12-05T04:31:32.523Z,0
2022-12-05T04:32:36.473Z,0
2022-12-05T04:33:39.008Z,0
2022-12-05T04:34:43.207Z,0
2022-12-05T04:35:46.879Z,0
2022-12-05T04:36:49.838Z,0
2022-12-05T04:37:53.219Z,0
2022-12-05T04:38:56.349Z,0
2022-12-05T04:39:59.770Z,0
2022-12-05T04:41:03.732Z,0
2022-12-05T04:42:06.019Z,0
2022-12-05T04:43:09.093Z,0
2022-12-05T04:44:12.137Z,0
2022-12-05T04:45:15.054Z,0
2022-12-05T04:46:18.233Z,0
2022-12-05T04:47:21.517Z,0
2022-12-05T04:48:24.647Z,0
2022-12-05T04:49:27.375Z,0
2022-12-05T04:50:31.490Z,0
2022-12-05T04:51:34.540Z,0
2022-12-05T04:52:37.678Z,0
2022-12-05T04:53:40.964Z,0
2022-12-05T04:54:43.732Z,0
2022-12-05T04:55:46.467Z,0
2022-12-05T04:56:49.801Z,0
2022-12-05T04:57:56.876Z,0
2022-12-05T04:58:59.381Z,0
2022-12-05T05:00:02.864Z,0
2022-12-05T05:01:05.730Z,0
2022-12-05T05:02:09.309Z,0
2022-12-05T05:03:13.034Z,0
2022-12-05T05:04:16.690Z,0
2022-12-05T05:05:19.708Z,0
2022-12-05T05:06:23.813Z,0
2022-12-05T05:07:27.216Z,0
2022-12-05T05:08:29.995Z,0
2022-12-05T05:09:32.790Z,0
2022-12-05T05:10:35.209Z,0
2022-12-05T05:11:38.631Z,0
2022-12-05T05:12:41.402Z,0
2022-12-05T05:13:44.902Z,0
2022-12-05T05:14:48.283Z,0
2022-12-05T05:15:50.652Z,0
2022-12-05T05:16:54.641Z,0
2022-12-05T05:17:57.786Z,0
2022-12-05T05:19:01.192Z,0
2022-12-05T05:20:04.035Z,0
2022-12-05T05:21:06.560Z,0
2022-12-05T05:22:10.674Z,0
2022-12-05T05:23:13.748Z,0
2022-12-05T05:24:16.885Z,0
2022-12-05T05:25:19.587Z,0
2022-12-05T05:26:21.815Z,0
2022-12-05T05:27:25.069Z,0
2022-12-05T05:28:28.122Z,0
2022-12-05T05:29:31.097Z,0
2022-12-05T05:30:34.172Z,0
2022-12-05T05:31:36.632Z,0
2022-12-05T05:32:40.440Z,0
2022-12-05T05:33:43.208Z,0
2022-12-05T05:34:46.355Z,0
2022-12-05T05:35:49.792Z,0
2022-12-05T05:36:52.816Z,0
2022-12-05T05:37:56.955Z,0
2022-12-05T05:39:00.011Z,0
2022-12-05T05:40:06.306Z,0
2022-12-05T05:41:13.974Z,0
2022-12-05T05:42:16.148Z,0
2022-12-05T05:43:19.855Z,0
2022-12-05T05:44:22.634Z,0
2022-12-05T05:45:26.338Z,0
2022-12-05T05:46:29.520Z,0
2022-12-05T05:47:33.390Z,0
2022-12-05T05:48:36.435Z,0
2022-12-05T05:49:39.137Z,0
2022-12-05T05:50:41.149Z,0
2022-12-05T05:51:44.471Z,0
2022-12-05T05:52:47.549Z,0
2022-12-05T05:53:51.735Z,0
2022-12-05T05:54:54.802Z,0
2022-12-05T05:55:57.222Z,0
2022-12-05T05:57:00.349Z,0
2022-12-05T05:58:03.175Z,0
2022-12-05T05:59:05.677Z,0
2022-12-05T06:00:08.097Z,0
2022-12-05T06:01:11.705Z,0
2022-12-05T06:02:14.407Z,0
2022-12-05T06:03:17.647Z,0
2022-12-05T06:04:22.279Z,0
2022-12-05T06:05:25.984Z,0
2022-12-05T06:06:28.959Z,0
2022-12-05T06:07:31.725Z,0
2022-12-05T06:08:34.830Z,0
2022-12-05T06:09:38.948Z,0
2022-12-05T06:10:41.801Z,0
2022-12-05T06:11:44.853Z,0
2022-12-05T06:12:47.360Z,0
2022-12-05T06:13:50.220Z,0
2022-12-05T06:14:53.267Z,0
2022-12-05T06:15:56.305Z,0
2022-12-05T06:16:59.285Z,0
2022-12-05T06:18:02.487Z,0
2022-12-05T06:19:05.799Z,0
2022-12-05T06:20:09.062Z,0
2022-12-05T06:21:16.106Z,0
2022-12-05T06:22:19.487Z,0
2022-12-05T06:23:22.623Z,0
2022-12-05T06:24:25.640Z,0
2022-12-05T06:25:29.898Z,0
2022-12-05T06:26:32.774Z,0
2022-12-05T06:27:35.557Z,0
2022-12-05T06:28:38.475Z,0
2022-12-05T06:29:41.176Z,0
2022-12-05T06:30:43.670Z,0
2022-12-05T06:31:46.244Z,0
2022-12-05T06:32:49.902Z,0
2022-12-05T06:33:53.415Z,0
2022-12-05T06:34:55.640Z,0
2022-12-05T06:35:59.079Z,0
2022-12-05T06:37:01.899Z,0
2022-12-05T06:38:04.951Z,0
2022-12-05T06:39:07.932Z,0
2022-12-05T06:40:10.180Z,0
2022-12-05T06:41:14.350Z,0
2022-12-05T06:42:18.055Z,0
2022-12-05T06:43:21.257Z,0
2022-12-05T06:44:24.015Z,4
2022-12-05T06:45:27.162Z,4
2022-12-05T06:46:30.833Z,4
2022-12-05T06:47:34.516Z,0
2022-12-05T06:48:37.596Z,4
2022-12-05T06:49:40.656Z,4
2022-12-05T06:50:43.435Z,4
2022-12-05T06:51:46.484Z,4
2022-12-05T06:52:49.263Z,8
2022-12-05T06:53:51.583Z,8
2022-12-05T06:54:54.975Z,8
2022-12-05T06:55:58.232Z,12
2022-12-05T06:57:02.609Z,8
2022-12-05T06:58:05.499Z,16
2022-12-05T06:59:08.654Z,16
2022-12-05T07:00:11.427Z,16
2022-12-05T07:01:13.634Z,20
2022-12-05T07:02:17.062Z,20
2022-12-05T07:03:19.876Z,20
2022-12-05T07:04:22.585Z,20
2022-12-05T07:05:25.786Z,24
2022-12-05T07:06:28.914Z,28
2022-12-05T07:07:31.702Z,32
2022-12-05T07:08:34.940Z,32
2022-12-05T07:09:38.658Z,36
2022-12-05T07:10:41.618Z,36
2022-12-05T07:11:44.155Z,44
2022-12-05T07:12:48.369Z,48
2022-12-05T07:13:50.845Z,52
2022-12-05T07:14:53.997Z,64
2022-12-05T07:15:56.334Z,68
2022-12-05T07:16:59.420Z,80
2022-12-05T07:18:02.370Z,88
2022-12-05T07:19:05.729Z,92
2022-12-05T07:20:08.721Z,96
2022-12-05T07:21:13.046Z,108
2022-12-05T07:22:17.830Z,120
2022-12-05T07:23:20.852Z,128
2022-12-05T07:24:23.560Z,136
2022-12-05T07:25:26.328Z,148
2022-12-05T07:26:29.179Z,164
2022-12-05T07:27:32.452Z,184
2022-12-05T07:28:36.575Z,180
2022-12-05T07:29:39.006Z,200
2022-12-05T07:30:42.056Z,224
2022-12-05T07:31:45.116Z,228
2022-12-05T07:32:48.576Z,252
2022-12-05T07:33:51.644Z,268
2022-12-05T07:34:55.604Z,240
2022-12-05T07:35:58.908Z,248
2022-12-05T07:37:02.065Z,252
2022-12-05T07:38:04.925Z,276
2022-12-05T07:39:07.355Z,268
2022-12-05T07:40:10.230Z,300
2022-12-05T07:41:13.815Z,292
2022-12-05T07:42:16.992Z,264
2022-12-05T07:43:19.521Z,252
2022-12-05T07:44:23.673Z,260
2022-12-05T07:45:26.542Z,272
2022-12-05T07:46:30.331Z,276
2022-12-05T07:47:33.792Z,308
2022-12-05T07:48:36.793Z,312
2022-12-05T07:49:40.224Z,344
2022-12-05T07:50:43.311Z,332
2022-12-05T07:51:46.388Z,336
2022-12-05T07:52:49.089Z,320
2022-12-05T07:53:52.140Z,332
2022-12-05T07:54:55.064Z,368
2022-12-05T07:55:58.116Z,376
2022-12-05T07:57:01.164Z,356
2022-12-05T07:58:04.004Z,364
2022-12-05T07:59:07.013Z,360
2022-12-05T08:00:11.197Z,380
2022-12-05T08:01:15.013Z,444
2022-12-05T08:02:18.817Z,456
2022-12-05T08:03:22.392Z,468
2022-12-05T08:04:25.836Z,476
2022-12-05T08:05:29.238Z,500
2022-12-05T08:06:31.936Z,464
2022-12-05T08:07:35.404Z,444
2022-12-05T08:08:38.415Z,460
2022-12-05T08:09:41.464Z,444
2022-12-05T08:10:44.742Z,436
2022-12-05T08:11:52.496Z,452
2022-12-05T08:12:55.807Z,480
2022-12-05T08:13:58.991Z,508
2022-12-05T08:15:01.441Z,520
2022-12-05T08:16:05.555Z,528
2022-12-05T08:17:08.741Z,600
2022-12-05T08:18:10.971Z,588
2022-12-05T08:19:13.741Z,592
2022-12-05T08:20:16.801Z,656
2022-12-05T08:21:19.505Z,688
2022-12-05T08:22:23.204Z,720
2022-12-05T08:23:26.314Z,664
2022-12-05T08:24:29.362Z,772
2022-12-05T08:25:33.472Z,736
2022-12-05T08:26:35.906Z,720
2022-12-05T08:27:38.513Z,740
2022-12-05T08:28:41.497Z,704
2022-12-05T08:29:45.596Z,796
2022-12-05T08:30:48.471Z,1004
2022-12-05T08:31:53.107Z,1068
2022-12-05T08:32:56.321Z,1124
2022-12-05T08:33:59.646Z,1248
2022-12-05T08:35:02.862Z,1368
2022-12-05T08:36:05.452Z,1652
2022-12-05T08:37:07.755Z,1828
2022-12-05T08:38:10.799Z,1824
2022-12-05T08:39:14.260Z,1604
2022-12-05T08:40:17.268Z,1436
2022-12-05T08:41:20.055Z,1428
2022-12-05T08:42:23.026Z,1272
2022-12-05T08:43:26.242Z,1196
2022-12-05T08:44:29.498Z,1168
2022-12-05T08:45:32.477Z,1284
2022-12-05T08:46:35.521Z,1360
2022-12-05T08:47:40.281Z,1312
2022-12-05T08:48:43.890Z,1292
2022-12-05T08:49:46.879Z,1188
2022-12-05T08:50:50.594Z,1196
2022-12-05T08:51:53.572Z,1228
2022-12-05T08:52:56.626Z,1268
2022-12-05T08:53:59.129Z,1356
2022-12-05T08:55:02.535Z,1356
2022-12-05T08:56:05.666Z,1248
2022-12-05T08:57:09.067Z,1220
2022-12-05T08:58:12.217Z,1124
2022-12-05T08:59:15.258Z,1040
2022-12-05T09:00:18.040Z,916
2022-12-05T09:01:20.664Z,904
2022-12-05T09:02:24.313Z,948
2022-12-05T09:03:28.843Z,940
2022-12-05T09:04:31.544Z,952
2022-12-05T09:05:34.686Z,1216
2022-12-05T09:06:37.943Z,1144
2022-12-05T09:07:41.869Z,1068
2022-12-05T09:08:45.522Z,1144
2022-12-05T09:09:48.300Z,1132
2022-12-05T09:10:51.150Z,1204
2022-12-05T09:11:54.754Z,1272
2022-12-05T09:12:57.619Z,1236
2022-12-05T09:14:00.596Z,1256
2022-12-05T09:15:02.815Z,1132
2022-12-05T09:16:05.659Z,1144
2022-12-05T09:17:09.229Z,1320
2022-12-05T09:18:12.581Z,1396
2022-12-05T09:19:16.777Z,1624
2022-12-05T09:20:19.602Z,1616
2022-12-05T09:21:22.670Z,1532
2022-12-05T09:22:26.015Z,1488
2022-12-05T09:23:29.200Z,1700
2022-12-05T09:24:32.000Z,1732
2022-12-05T09:25:34.497Z,1868
2022-12-05T09:26:37.270Z,1704
2022-12-05T09:27:40.516Z,1876
2022-12-05T09:28:43.680Z,1920
2022-12-05T09:29:46.744Z,1740
2022-12-05T09:30:49.550Z,1816
2022-12-05T09:31:52.948Z,1808
2022-12-05T09:32:56.276Z,1648
2022-12-05T09:33:59.162Z,1568
2022-12-05T09:35:03.392Z,1456
2022-12-05T09:36:06.233Z,1472
2022-12-05T09:37:30.641Z,1504
2022-12-05T09:38:42.707Z,1612
2022-12-05T09:39:45.662Z,1568
2022-12-05T09:40:48.730Z,1564
2022-12-05T09:41:54.098Z,1452
2022-12-05T09:42:57.442Z,1416
2022-12-05T09:44:00.594Z,1792
2022-12-05T09:45:03.296Z,1580
2022-12-05T09:46:06.485Z,1536
2022-12-05T09:47:10.100Z,1612
2022-12-05T09:48:12.911Z,1420
2022-12-05T09:49:16.354Z,1584
2022-12-05T09:50:20.591Z,1392
2022-12-05T09:51:24.601Z,1556
2022-12-05T09:52:27.670Z,1504
2022-12-05T09:53:30.758Z,1684
2022-12-05T09:54:33.632Z,1868
2022-12-05T09:55:36.967Z,2104
2022-12-05T09:56:39.748Z,2120
2022-12-05T09:57:42.844Z,2008
2022-12-05T09:58:45.895Z,2232
2022-12-05T09:59:48.751Z,2280
2022-12-05T10:00:51.620Z,2196
2022-12-05T10:01:54.833Z,2328
2022-12-05T10:02:58.705Z,2340
2022-12-05T10:04:02.309Z,1996
2022-12-05T10:05:05.715Z,2148
2022-12-05T10:06:12.089Z,2152
2022-12-05T10:07:14.889Z,2324
2022-12-05T10:08:17.523Z,2348
2022-12-05T10:09:21.246Z,2436
2022-12-05T10:10:24.369Z,2516
2022-12-05T10:11:27.469Z,2628
2022-12-05T10:12:30.297Z,2612
2022-12-05T10:13:33.557Z,2848
2022-12-05T10:14:36.724Z,2840
2022-12-05T10:15:42.734Z,2940
2022-12-05T10:16:49.929Z,2868
2022-12-05T10:17:53.684Z,2988
2022-12-05T10:18:56.123Z,2712
2022-12-05T10:19:59.182Z,2880
2022-12-05T10:21:02.357Z,2484
2022-12-05T10:22:06.531Z,2068
2022-12-05T10:23:18.682Z,1908
2022-12-05T10:25:01.798Z,2188
2022-12-05T10:26:05.164Z,2160
2022-12-05T10:27:07.950Z,2132
2022-12-05T10:28:11.384Z,2160
2022-12-05T10:29:14.727Z,2064
2022-12-05T10:30:17.541Z,2132
2022-12-05T10:31:20.546Z,2820
2022-12-05T10:32:23.997Z,2456
2022-12-05T10:33:27.059Z,2128
2022-12-05T10:34:30.329Z,2288
2022-12-05T10:35:33.660Z,2396
2022-12-05T10:36:36.541Z,2292
2022-12-05T10:37:40.682Z,2516
2022-12-05T10:38:43.532Z,2672
2022-12-05T10:39:46.585Z,2812
2022-12-05T10:40:49.737Z,2496
2022-12-05T10:41:52.434Z,2244
2022-12-05T10:42:55.760Z,2424
2022-12-05T10:43:58.559Z,2304
2022-12-05T10:45:01.832Z,2632
2022-12-05T10:46:07.196Z,3060
2022-12-05T10:47:19.614Z,3400
2022-12-05T10:48:23.070Z,3324
2022-12-05T10:49:27.183Z,3280
2022-12-05T10:50:30.268Z,3256
2022-12-05T10:51:37.438Z,3356
2022-12-05T10:52:41.665Z,3520
2022-12-05T10:53:45.488Z,3244
2022-12-05T10:54:48.264Z,2784
2022-12-05T10:56:21.873Z,3168
2022-12-05T10:57:33.861Z,3188
2022-12-05T10:58:36.942Z,3044
2022-12-05T10:59:39.937Z,2876
2022-12-05T11:00:47.650Z,2372
2022-12-05T11:01:52.825Z,2436
2022-12-05T11:03:01.351Z,2824
2022-12-05T11:04:06.894Z,2784
2022-12-05T11:05:16.634Z,2532
2022-12-05T11:06:20.255Z,2540
2022-12-05T11:07:23.684Z,2668
2022-12-05T11:08:55.774Z,3148
2022-12-05T11:10:09.317Z,2944
2022-12-05T11:11:11.625Z,2644
2022-12-05T11:12:14.981Z,2488
2022-12-05T11:13:17.483Z,2800
2022-12-05T11:14:20.249Z,2664
2022-12-05T11:15:22.953Z,2860
2022-12-05T11:16:26.176Z,3120
2022-12-05T11:17:30.372Z,3564
2022-12-05T11:18:33.437Z,3628
2022-12-05T11:19:36.530Z,3420
2022-12-05T11:20:39.510Z,3392
2022-12-05T11:21:42.611Z,3280
2022-12-05T11:22:48.633Z,3600
2022-12-05T11:23:51.431Z,4028
2022-12-05T11:24:55.075Z,4128
2022-12-05T11:26:01.133Z,4248
2022-12-05T11:27:04.479Z,4056
2022-12-05T11:28:07.269Z,3796
2022-12-05T11:29:10.218Z,3896
2022-12-05T11:30:13.076Z,3484
2022-12-05T11:31:16.931Z,3324
2022-12-05T11:32:21.117Z,3952
2022-12-05T11:33:24.545Z,4700
2022-12-05T11:34:27.484Z,4220
2022-12-05T11:35:31.166Z,4012
2022-12-05T11:36:34.414Z,3672
2022-12-05T11:37:37.189Z,2984
2022-12-05T11:38:39.351Z,2864
2022-12-05T11:39:43.153Z,2876
2022-12-05T11:40:46.220Z,3036
2022-12-05T11:41:50.358Z,3060
2022-12-05T11:42:54.138Z,2720
2022-12-05T11:43:57.503Z,2444
2022-12-05T11:45:01.339Z,2276
2022-12-05T11:46:04.668Z,2404
2022-12-05T11:47:08.321Z,2544
2022-12-05T11:48:11.286Z,2584
2022-12-05T11:49:14.145Z,2904
2022-12-05T11:50:16.729Z,2696
2022-12-05T11:51:19.506Z,2648
2022-12-05T11:52:22.913Z,2612
2022-12-05T11:53:25.977Z,2472
2022-12-05T11:54:56.559Z,2360
2022-12-05T11:56:09.568Z,2660
2022-12-05T11:57:13.752Z,2460
2022-12-05T11:58:16.805Z,2152
2022-12-05T11:59:19.858Z,2036
2022-12-05T12:00:22.920Z,2080
2022-12-05T12:01:26.392Z,2128
2022-12-05T12:02:29.491Z,2268
2022-12-05T12:03:33.940Z,2428
2022-12-05T12:04:37.518Z,2440
2022-12-05T12:05:40.659Z,2384
2022-12-05T12:06:44.162Z,2572
2022-12-05T12:07:46.690Z,2680
2022-12-05T12:08:50.128Z,3096
2022-12-05T12:09:53.483Z,3376
2022-12-05T12:10:56.789Z,3272
2022-12-05T12:12:00.517Z,3448
2022-12-05T12:13:04.365Z,3212
2022-12-05T12:14:07.522Z,3152
2022-12-05T12:15:10.301Z,3432
2022-12-05T12:16:13.101Z,3176
2022-12-05T12:17:16.091Z,2996
2022-12-05T12:18:19.808Z,2972
2022-12-05T12:19:23.052Z,3332
2022-12-05T12:20:25.848Z,3068
2022-12-05T12:21:28.976Z,3236
2022-12-05T12:22:41.500Z,3144
2022-12-05T12:23:44.631Z,3224
2022-12-05T12:24:47.496Z,2768
2022-12-05T12:25:50.284Z,2632
2022-12-05T12:26:53.058Z,2336
2022-12-05T12:27:58.736Z,2460
2022-12-05T12:29:08.204Z,2572
2022-12-05T12:30:11.098Z,2640
2022-12-05T12:31:14.260Z,2536
2022-12-05T12:32:17.663Z,2540
2022-12-05T12:33:25.594Z,2396
2022-12-05T12:34:30.223Z,2576
2022-12-05T12:35:33.556Z,2768
2022-12-05T12:36:36.692Z,3004
2022-12-05T12:37:39.274Z,2844
2022-12-05T12:38:44.679Z,2616
2022-12-05T12:39:54.656Z,2344
2022-12-05T12:40:58.202Z,2388
2022-12-05T12:42:01.120Z,2716
2022-12-05T12:43:04.889Z,2608
2022-12-05T12:44:08.188Z,2780
2022-12-05T12:45:11.830Z,2512
2022-12-05T12:46:15.124Z,2276
2022-12-05T12:47:19.312Z,2244
2022-12-05T12:48:22.498Z,2200
2022-12-05T12:49:25.093Z,2104
2022-12-05T12:50:28.503Z,2220
2022-12-05T12:51:31.641Z,2192
2022-12-05T12:52:34.723Z,2372
2022-12-05T12:53:37.576Z,2184
2022-12-05T12:55:02.684Z,1968
2022-12-05T12:56:08.283Z,2092
2022-12-05T12:57:14.641Z,1960
2022-12-05T12:58:27.334Z,1888
2022-12-05T12:59:30.141Z,1824
2022-12-05T13:00:34.017Z,1896
2022-12-05T13:01:38.239Z,2092
2022-12-05T13:02:41.663Z,1972
2022-12-05T13:03:48.451Z,1756
2022-12-05T13:04:54.632Z,1688
2022-12-05T13:05:59.976Z,1548
2022-12-05T13:07:03.062Z,1536
2022-12-05T13:08:05.840Z,1700
2022-12-05T13:09:08.820Z,1704
2022-12-05T13:10:11.774Z,1524
2022-12-05T13:11:14.630Z,1516
2022-12-05T13:12:17.880Z,1400
2022-12-05T13:13:20.943Z,1456
2022-12-05T13:14:24.728Z,1456
2022-12-05T13:15:27.455Z,1492
2022-12-05T13:16:31.414Z,1476
2022-12-05T13:17:35.431Z,1516
2022-12-05T13:18:38.586Z,1488
2022-12-05T13:19:41.710Z,1488
2022-12-05T13:20:44.429Z,1496
2022-12-05T13:21:47.010Z,1348
2022-12-05T13:22:50.080Z,1304
2022-12-05T13:23:52.662Z,1392
2022-12-05T13:24:55.904Z,1340
2022-12-05T13:26:00.716Z,1476
2022-12-05T13:27:03.752Z,1496
2022-12-05T13:28:06.450Z,1576
2022-12-05T13:29:09.896Z,1612
2022-12-05T13:30:13.755Z,1544
2022-12-05T13:31:17.521Z,1492
2022-12-05T13:32:21.846Z,1464
2022-12-05T13:33:24.936Z,1332
2022-12-05T13:34:27.714Z,1320
2022-12-05T13:35:30.867Z,1252
2022-12-05T13:36:34.044Z,1200
2022-12-05T13:37:37.026Z,1208
2022-12-05T13:38:40.354Z,1196
2022-12-05T13:39:43.205Z,1140
2022-12-05T13:40:46.359Z,1112
2022-12-05T13:41:49.021Z,1132
2022-12-05T13:42:52.376Z,1088
2022-12-05T13:44:05.635Z,1156
2022-12-05T13:45:10.318Z,1196
2022-12-05T13:46:13.187Z,1112
2022-12-05T13:47:16.877Z,1140
2022-12-05T13:48:21.062Z,1172
2022-12-05T13:49:23.849Z,1164
2022-12-05T13:50:26.663Z,1060
2022-12-05T13:51:30.028Z,1044
2022-12-05T13:52:33.831Z,1040
2022-12-05T13:53:36.707Z,1116
2022-12-05T13:54:39.498Z,1148
2022-12-05T13:55:42.939Z,1132
2022-12-05T13:56:46.253Z,1036
2022-12-05T13:57:49.211Z,1016
2022-12-05T13:58:52.000Z,1004
2022-12-05T13:59:54.414Z,884
2022-12-05T14:00:59.727Z,772
2022-12-05T14:02:03.515Z,648
2022-12-05T14:03:07.299Z,632
2022-12-05T14:04:11.159Z,692
2022-12-05T14:05:14.612Z,616
2022-12-05T14:06:17.673Z,576
2022-12-05T14:07:21.035Z,492
2022-12-05T14:08:23.651Z,456
2022-12-05T14:09:27.312Z,460
2022-12-05T14:10:30.723Z,412
2022-12-05T14:11:34.030Z,372
2022-12-05T14:12:37.112Z,372
2022-12-05T14:13:40.477Z,388
2022-12-05T14:14:43.269Z,388
2022-12-05T14:15:46.322Z,368
2022-12-05T14:16:49.718Z,348
2022-12-05T14:17:53.112Z,336
2022-12-05T14:18:56.736Z,308
2022-12-05T14:20:01.183Z,292
2022-12-05T14:21:04.803Z,324
2022-12-05T14:22:08.156Z,320
2022-12-05T14:23:10.592Z,296
2022-12-05T14:24:13.638Z,296
2022-12-05T14:25:16.050Z,308
2022-12-05T14:26:18.910Z,308
2022-12-05T14:27:22.225Z,296
2022-12-05T14:28:24.956Z,300
2022-12-05T14:29:27.500Z,300
2022-12-05T14:30:30.319Z,292
2022-12-05T14:31:33.702Z,296
2022-12-05T14:32:36.769Z,284
2022-12-05T14:33:39.517Z,272
2022-12-05T14:34:42.381Z,264
2022-12-05T14:35:46.569Z,248
2022-12-05T14:36:48.996Z,232
2022-12-05T14:37:52.060Z,224
2022-12-05T14:38:54.929Z,212
2022-12-05T14:39:58.526Z,212
2022-12-05T14:41:06.586Z,208
2022-12-05T14:42:09.503Z,188
2022-12-05T14:43:12.768Z,168
2022-12-05T14:44:16.036Z,160
2022-12-05T14:45:19.478Z,160
2022-12-05T14:46:22.575Z,144
2022-12-05T14:47:25.529Z,128
2022-12-05T14:48:27.959Z,112
2022-12-05T14:49:33.024Z,104
2022-12-05T14:50:51.173Z,100
2022-12-05T14:51:54.476Z,92
2022-12-05T14:52:57.721Z,84
2022-12-05T14:54:01.048Z,84
2022-12-05T14:55:04.069Z,76